createdAt,value
2023-01-27T00:01:36.194Z,8.77
2023-01-27T00:04:04.808Z,8.78
2023-01-27T00:06:34.034Z,8.75
2023-01-27T00:09:01.846Z,8.70
2023-01-27T00:11:47.558Z,8.61
2023-01-27T00:14:15.189Z,8.56
2023-01-27T00:16:42.979Z,8.57
2023-01-27T00:19:10.755Z,8.58
2023-01-27T00:21:57.291Z,8.55
2023-01-27T00:24:38.854Z,8.57
2023-01-27T00:27:08.843Z,8.54
2023-01-27T00:29:37.306Z,8.44
2023-01-27T00:32:22.951Z,8.31
2023-01-27T00:34:51.020Z,8.46
2023-01-27T00:37:20.806Z,8.39
2023-01-27T00:39:48.473Z,8.46
2023-01-27T00:42:16.273Z,8.42
2023-01-27T00:45:04.270Z,8.35
2023-01-27T00:47:32.138Z,8.42
2023-01-27T00:49:59.817Z,8.40
2023-01-27T00:52:29.012Z,8.36
2023-01-27T00:54:56.791Z,8.31
2023-01-27T00:57:24.452Z,8.27
2023-01-27T00:59:52.254Z,8.26
2023-01-27T01:02:19.958Z,8.22
2023-01-27T01:04:47.744Z,8.17
2023-01-27T01:07:15.387Z,8.17
2023-01-27T01:09:44.557Z,7.92
2023-01-27T01:12:12.201Z,8.12
2023-01-27T01:14:39.956Z,8.15
2023-01-27T01:17:07.618Z,8.20
2023-01-27T01:19:35.535Z,8.18
2023-01-27T01:22:04.908Z,8.23
2023-01-27T01:24:32.855Z,8.25
2023-01-27T01:27:01.934Z,8.24
2023-01-27T01:29:29.940Z,8.29
2023-01-27T01:31:57.591Z,8.28
2023-01-27T01:34:25.401Z,8.27
2023-01-27T01:36:53.030Z,8.26
2023-01-27T01:39:20.814Z,8.24
2023-01-27T01:41:48.463Z,8.22
2023-01-27T01:44:24.397Z,8.16
2023-01-27T01:46:52.100Z,8.13
2023-01-27T01:49:20.802Z,8.10
2023-01-27T01:51:49.371Z,7.89
2023-01-27T01:56:46.140Z,8.03
2023-01-27T01:59:15.241Z,7.90
2023-01-27T02:01:44.642Z,7.89
2023-01-27T02:04:13.555Z,7.80
2023-01-27T02:06:41.991Z,7.80
2023-01-27T02:09:09.757Z,7.77
2023-01-27T02:11:37.575Z,7.83
2023-01-27T02:14:05.245Z,7.57
2023-01-27T02:16:33.145Z,7.50
2023-01-27T02:19:02.285Z,7.78
2023-01-27T02:21:30.009Z,7.80
2023-01-27T02:23:59.152Z,7.78
2023-01-27T02:26:29.946Z,7.74
2023-01-27T02:28:58.447Z,7.08
2023-01-27T02:31:26.483Z,7.69
2023-01-27T02:33:55.327Z,7.54
2023-01-27T02:36:23.461Z,7.77
2023-01-27T02:38:52.116Z,7.70
2023-01-27T02:41:21.767Z,7.68
2023-01-27T02:43:50.887Z,7.68
2023-01-27T02:46:18.595Z,7.62
2023-01-27T02:48:46.339Z,7.67
2023-01-27T02:51:14.372Z,7.68
2023-01-27T02:53:42.160Z,7.45
2023-01-27T02:56:10.209Z,7.69
2023-01-27T02:58:38.556Z,7.38
2023-01-27T03:01:08.265Z,7.60
2023-01-27T03:03:47.246Z,7.75
2023-01-27T03:06:15.254Z,7.78
2023-01-27T03:08:42.975Z,7.74
2023-01-27T03:11:13.317Z,7.68
2023-01-27T03:13:41.056Z,7.70
2023-01-27T03:16:29.522Z,7.64
2023-01-27T03:18:57.427Z,7.69
2023-01-27T03:21:25.230Z,7.68
2023-01-27T03:23:52.918Z,7.71
2023-01-27T03:26:21.087Z,7.74
2023-01-27T03:29:09.052Z,7.64
2023-01-27T03:31:38.325Z,7.49
2023-01-27T03:34:06.020Z,7.59
2023-01-27T03:36:51.419Z,7.52
2023-01-27T03:39:37.929Z,7.55
2023-01-27T03:42:23.206Z,7.53
2023-01-27T03:45:09.887Z,7.46
2023-01-27T03:47:39.153Z,7.48
2023-01-27T03:50:11.301Z,7.47
2023-01-27T03:52:39.068Z,7.47
2023-01-27T03:55:09.473Z,7.53
2023-01-27T03:57:38.099Z,7.59
2023-01-27T04:00:06.619Z,7.63
2023-01-27T04:02:51.747Z,7.64
2023-01-27T04:05:38.366Z,7.53
2023-01-27T04:08:06.440Z,7.53
2023-01-27T04:10:34.239Z,7.52
2023-01-27T04:13:01.056Z,7.55
2023-01-27T04:15:29.870Z,7.53
2023-01-27T04:17:57.843Z,7.49
2023-01-27T04:20:26.964Z,7.47
2023-01-27T04:22:54.744Z,7.29
2023-01-27T04:25:22.740Z,7.54
2023-01-27T04:27:50.437Z,7.56
2023-01-27T04:30:18.599Z,7.33
2023-01-27T04:32:46.295Z,7.62
2023-01-27T04:35:14.832Z,7.63
2023-01-27T04:37:44.121Z,7.61
2023-01-27T04:40:13.598Z,7.58
2023-01-27T04:42:41.276Z,7.66
2023-01-27T04:45:10.587Z,7.70
2023-01-27T04:47:38.352Z,7.70
2023-01-27T04:50:07.136Z,7.69
2023-01-27T04:52:35.055Z,7.74
2023-01-27T04:55:04.215Z,7.73
2023-01-27T04:57:32.037Z,7.77
2023-01-27T04:59:59.850Z,7.78
2023-01-27T05:02:27.621Z,7.80
2023-01-27T05:04:55.573Z,7.77
2023-01-27T05:07:23.436Z,7.72
2023-01-27T05:09:51.138Z,7.78
2023-01-27T05:12:20.233Z,7.78
2023-01-27T05:14:47.911Z,7.82
2023-01-27T05:17:15.949Z,7.81
2023-01-27T05:19:43.607Z,7.75
2023-01-27T05:22:12.011Z,7.72
2023-01-27T05:24:39.732Z,7.78
2023-01-27T05:27:07.558Z,7.81
2023-01-27T05:29:36.551Z,7.81
2023-01-27T05:32:04.247Z,7.80
2023-01-27T05:34:34.781Z,7.82
2023-01-27T05:37:02.516Z,7.82
2023-01-27T05:39:30.164Z,7.83
2023-01-27T05:41:57.929Z,7.84
2023-01-27T05:44:25.842Z,7.67
2023-01-27T05:46:55.036Z,7.85
2023-01-27T05:49:22.700Z,7.87
2023-01-27T05:51:50.444Z,7.84
2023-01-27T05:54:18.159Z,7.87
2023-01-27T05:56:45.917Z,7.88
2023-01-27T05:59:13.656Z,7.86
2023-01-27T06:01:41.437Z,7.61
2023-01-27T06:04:10.696Z,7.85
2023-01-27T06:06:38.535Z,7.81
2023-01-27T06:09:06.176Z,7.82
2023-01-27T06:11:33.891Z,7.88
2023-01-27T06:14:01.586Z,7.94
2023-01-27T06:16:29.525Z,7.45
2023-01-27T06:18:58.636Z,7.90
2023-01-27T06:21:28.963Z,7.76
2023-01-27T06:23:58.031Z,7.92
2023-01-27T06:26:25.798Z,7.94
2023-01-27T06:28:53.633Z,7.94
2023-01-27T06:31:22.833Z,7.94
2023-01-27T06:33:50.739Z,7.54
2023-01-27T06:36:20.642Z,7.95
2023-01-27T06:38:50.137Z,7.94
2023-01-27T06:41:18.237Z,8.00
2023-01-27T06:43:45.903Z,8.02
2023-01-27T06:46:15.033Z,7.88
2023-01-27T06:48:42.777Z,8.11
2023-01-27T06:51:10.936Z,7.76
2023-01-27T06:53:38.798Z,8.12
2023-01-27T06:56:08.649Z,8.10
2023-01-27T06:58:36.439Z,8.13
2023-01-27T07:01:05.950Z,7.85
2023-01-27T07:06:00.669Z,8.22
2023-01-27T07:08:29.360Z,8.19
2023-01-27T07:10:57.085Z,8.04
2023-01-27T07:13:26.180Z,8.15
2023-01-27T07:15:57.023Z,8.22
2023-01-27T07:18:24.737Z,8.29
2023-01-27T07:20:52.551Z,8.26
2023-01-27T07:23:20.573Z,8.24
2023-01-27T07:25:48.326Z,8.29
2023-01-27T07:28:16.253Z,8.34
2023-01-27T07:30:45.282Z,8.36
2023-01-27T07:33:13.927Z,8.20
2023-01-27T07:35:42.520Z,8.39
2023-01-27T07:38:11.396Z,8.26
2023-01-27T07:40:39.216Z,8.38
2023-01-27T07:43:07.007Z,8.21
2023-01-27T07:45:35.210Z,8.40
2023-01-27T07:48:07.717Z,8.43
2023-01-27T07:50:35.512Z,8.34
2023-01-27T07:58:21.307Z,8.43
2023-01-27T08:00:49.042Z,8.34
2023-01-27T08:03:22.780Z,8.39
2023-01-27T08:05:50.905Z,8.39
2023-01-27T08:08:18.945Z,8.48
2023-01-27T08:10:49.181Z,8.54
2023-01-27T08:13:16.986Z,8.53
2023-01-27T08:15:44.634Z,8.55
2023-01-27T08:18:12.312Z,8.51
2023-01-27T08:20:41.441Z,8.48
2023-01-27T08:23:09.433Z,8.47
2023-01-27T08:25:37.074Z,8.47
2023-01-27T08:28:05.053Z,8.51
2023-01-27T08:30:32.826Z,8.48
2023-01-27T08:33:00.513Z,8.55
2023-01-27T08:35:28.352Z,8.61
2023-01-27T08:37:57.465Z,8.59
2023-01-27T08:40:25.168Z,8.62
2023-01-27T08:42:52.841Z,8.64
2023-01-27T08:45:20.910Z,8.52
2023-01-27T08:47:48.734Z,8.67
2023-01-27T08:50:16.771Z,8.67
2023-01-27T08:52:44.664Z,8.59
2023-01-27T08:55:13.813Z,8.69
2023-01-27T08:57:41.466Z,8.73
2023-01-27T09:00:10.403Z,8.80
2023-01-27T09:02:38.243Z,8.82
2023-01-27T09:05:06.972Z,8.86
2023-01-27T09:07:35.134Z,8.90
2023-01-27T09:10:18.145Z,8.95
2023-01-27T09:12:47.274Z,8.93
2023-01-27T09:15:15.692Z,8.92
2023-01-27T09:17:43.351Z,8.87
2023-01-27T09:20:12.620Z,8.93
2023-01-27T09:22:41.211Z,8.96
2023-01-27T09:25:17.820Z,8.91
2023-01-27T09:27:46.971Z,8.97
2023-01-27T09:30:17.966Z,8.95
2023-01-27T09:32:45.676Z,8.98
2023-01-27T09:35:16.457Z,9.07
2023-01-27T09:37:45.916Z,9.14
2023-01-27T09:40:19.643Z,9.15
2023-01-27T09:43:08.962Z,9.19
2023-01-27T09:45:41.409Z,9.20
2023-01-27T09:48:35.658Z,9.27
2023-01-27T09:51:05.899Z,8.97
2023-01-27T09:53:47.985Z,9.34
2023-01-27T09:56:16.616Z,9.40
2023-01-27T09:58:54.123Z,9.42
2023-01-27T10:01:23.870Z,9.12
2023-01-27T10:04:01.727Z,9.43
2023-01-27T10:06:56.283Z,9.52
2023-01-27T10:09:41.064Z,9.46
2023-01-27T10:12:15.739Z,9.46
2023-01-27T10:14:48.348Z,9.43
2023-01-27T10:17:29.163Z,9.65
2023-01-27T10:20:20.661Z,9.74
2023-01-27T10:22:52.322Z,9.78
2023-01-27T10:25:25.727Z,9.79
2023-01-27T10:27:56.689Z,9.76
2023-01-27T10:30:29.108Z,9.80
2023-01-27T10:32:59.291Z,9.83
2023-01-27T10:35:28.952Z,9.82
2023-01-27T10:38:03.602Z,9.86
2023-01-27T10:40:35.102Z,9.73
2023-01-27T10:43:05.057Z,9.86
2023-01-27T10:45:37.563Z,9.83
2023-01-27T10:48:19.722Z,9.82
2023-01-27T10:50:48.643Z,9.58
2023-01-27T10:53:18.376Z,9.84
2023-01-27T10:55:49.395Z,9.88
2023-01-27T10:58:21.259Z,9.84
2023-01-27T11:01:19.158Z,9.83
2023-01-27T11:03:41.845Z,9.86
2023-01-27T11:06:11.698Z,9.84
2023-01-27T11:08:41.534Z,9.96
2023-01-27T11:11:28.099Z,10.03
2023-01-27T11:14:02.725Z,10.09
2023-01-27T11:16:34.254Z,9.89
2023-01-27T11:19:04.278Z,10.13
2023-01-27T11:21:32.559Z,10.37
2023-01-27T11:24:00.740Z,10.35
2023-01-27T11:26:31.689Z,10.38
2023-01-27T11:29:03.520Z,10.21
2023-01-27T11:31:37.989Z,10.18
2023-01-27T11:34:08.595Z,10.25
2023-01-27T11:36:36.331Z,10.19
2023-01-27T11:39:06.358Z,10.25
2023-01-27T11:41:35.140Z,10.20
2023-01-27T11:44:04.038Z,10.22
2023-01-27T11:46:35.074Z,10.20
2023-01-27T11:49:02.849Z,10.16
2023-01-27T11:51:34.088Z,10.17
2023-01-27T11:54:05.627Z,10.18
2023-01-27T11:56:33.503Z,10.19
2023-01-27T11:59:03.592Z,10.21
2023-01-27T12:01:39.944Z,10.19
2023-01-27T12:04:10.658Z,10.21
2023-01-27T12:06:41.064Z,10.19
2023-01-27T12:09:08.717Z,10.17
2023-01-27T12:11:36.464Z,10.20
2023-01-27T12:14:05.291Z,10.22
2023-01-27T12:16:44.384Z,9.89
2023-01-27T12:19:22.960Z,10.22
2023-01-27T12:21:51.727Z,10.21
2023-01-27T12:24:23.900Z,10.20
2023-01-27T12:26:52.501Z,10.21
2023-01-27T12:29:22.883Z,10.11
2023-01-27T12:31:52.643Z,10.10
2023-01-27T12:34:29.185Z,9.87
2023-01-27T12:36:56.912Z,9.94
2023-01-27T12:39:40.404Z,10.02
2023-01-27T12:42:31.852Z,9.88
2023-01-27T12:44:59.712Z,9.92
2023-01-27T12:47:29.360Z,9.82
2023-01-27T12:50:20.931Z,9.91
2023-01-27T12:52:53.943Z,9.92
2023-01-27T12:55:31.563Z,9.98
2023-01-27T12:57:59.297Z,10.06
2023-01-27T13:00:27.657Z,10.13
2023-01-27T13:03:02.560Z,10.13
2023-01-27T13:05:30.352Z,10.19
2023-01-27T13:07:58.120Z,10.18
2023-01-27T13:10:27.691Z,10.17
2023-01-27T13:12:56.066Z,10.07
2023-01-27T13:15:24.566Z,10.04
2023-01-27T13:17:53.026Z,10.04
2023-01-27T13:20:24.833Z,9.97
2023-01-27T13:22:53.317Z,10.04
2023-01-27T13:25:23.124Z,9.93
2023-01-27T13:27:52.797Z,9.96
2023-01-27T13:30:23.868Z,9.79
2023-01-27T13:32:51.547Z,9.95
2023-01-27T13:35:23.413Z,9.97
2023-01-27T13:37:53.887Z,9.98
2023-01-27T13:40:23.307Z,10.06
2023-01-27T13:42:52.764Z,10.04
2023-01-27T13:45:22.853Z,10.14
2023-01-27T13:47:52.373Z,10.12
2023-01-27T13:50:25.566Z,10.22
2023-01-27T13:52:55.116Z,10.22
2023-01-27T13:55:26.171Z,10.39
2023-01-27T13:57:59.351Z,10.47
2023-01-27T14:00:28.370Z,10.62
2023-01-27T14:03:08.930Z,10.57
2023-01-27T14:05:46.081Z,10.40
2023-01-27T14:08:35.847Z,10.30
2023-01-27T14:11:08.852Z,10.20
2023-01-27T14:13:44.448Z,10.12
2023-01-27T14:16:14.847Z,10.09
2023-01-27T14:18:44.125Z,10.04
2023-01-27T14:21:27.942Z,9.93
2023-01-27T14:24:16.292Z,10.09
2023-01-27T14:26:48.216Z,10.04
2023-01-27T14:29:25.691Z,10.01
2023-01-27T14:31:56.012Z,9.96
2023-01-27T14:34:38.968Z,9.90
2023-01-27T14:37:16.640Z,9.88
2023-01-27T14:39:47.970Z,9.87
2023-01-27T14:45:01.289Z,9.65
2023-01-27T14:47:33.380Z,9.62
2023-01-27T14:50:08.152Z,9.55
2023-01-27T14:52:44.280Z,9.53
2023-01-27T14:55:27.847Z,9.09
2023-01-27T14:57:58.682Z,9.48
2023-01-27T15:00:33.734Z,9.48
2023-01-27T15:03:09.881Z,9.56
2023-01-27T15:05:40.533Z,9.57
2023-01-27T15:08:12.737Z,9.55
2023-01-27T15:10:42.421Z,9.40
2023-01-27T15:13:30.074Z,9.52
2023-01-27T15:16:09.327Z,9.44
2023-01-27T15:18:46.067Z,9.32
2023-01-27T15:21:22.720Z,9.46
2023-01-27T15:24:08.517Z,9.26
2023-01-27T15:26:36.447Z,9.46
2023-01-27T15:29:04.634Z,9.53
2023-01-27T15:31:32.693Z,9.39
2023-01-27T15:34:16.417Z,9.49
2023-01-27T15:36:59.978Z,9.54
2023-01-27T15:39:41.026Z,9.51
2023-01-27T15:42:12.560Z,9.45
2023-01-27T15:44:41.820Z,9.42
2023-01-27T15:47:11.277Z,9.33
2023-01-27T15:49:41.165Z,9.43
2023-01-27T15:52:20.033Z,9.24
2023-01-27T15:54:50.868Z,9.11
2023-01-27T15:57:25.723Z,9.36
2023-01-27T15:59:59.506Z,9.34
2023-01-27T16:02:28.490Z,9.36
2023-01-27T16:04:57.980Z,9.10
2023-01-27T16:07:28.058Z,9.28
2023-01-27T16:09:57.164Z,9.30
2023-01-27T16:12:37.550Z,9.23
2023-01-27T16:15:21.858Z,9.23
2023-01-27T16:18:23.699Z,9.23
2023-01-27T16:20:54.079Z,9.08
2023-01-27T16:23:27.830Z,8.79
2023-01-27T16:26:08.492Z,9.19
2023-01-27T16:28:46.361Z,9.09
2023-01-27T16:31:17.325Z,9.06
2023-01-27T16:33:45.565Z,9.10
2023-01-27T16:36:19.791Z,8.93
2023-01-27T16:38:47.707Z,9.03
2023-01-27T16:41:19.649Z,8.97
2023-01-27T16:43:50.869Z,8.77
2023-01-27T16:46:31.463Z,8.98
2023-01-27T16:48:59.266Z,8.97
2023-01-27T16:51:28.955Z,8.97
2023-01-27T16:53:58.021Z,9.02
2023-01-27T16:56:28.124Z,9.02
2023-01-27T16:58:59.647Z,9.03
2023-01-27T17:01:31.181Z,9.02
2023-01-27T17:04:07.625Z,8.80
2023-01-27T17:06:38.607Z,9.05
2023-01-27T17:09:19.771Z,9.06
2023-01-27T17:14:30.455Z,9.05
2023-01-27T17:16:59.358Z,8.92
2023-01-27T17:19:29.153Z,8.89
2023-01-27T17:21:57.957Z,8.98
2023-01-27T17:24:26.405Z,9.02
2023-01-27T17:26:57.838Z,8.56
2023-01-27T17:29:27.748Z,8.98
2023-01-27T17:31:56.657Z,8.98
2023-01-27T17:34:25.677Z,9.00
2023-01-27T17:37:06.586Z,8.96
2023-01-27T17:39:35.232Z,8.92
2023-01-27T17:42:05.028Z,8.95
2023-01-27T17:44:34.356Z,8.45
2023-01-27T17:47:02.301Z,8.86
2023-01-27T17:49:30.172Z,8.81
2023-01-27T17:51:58.912Z,8.79
2023-01-27T17:54:30.373Z,8.48
2023-01-27T17:57:05.524Z,8.87
2023-01-27T17:59:34.641Z,8.82
2023-01-27T18:02:04.988Z,8.84
2023-01-27T18:04:34.140Z,8.88
2023-01-27T18:07:01.914Z,8.83
2023-01-27T18:09:29.597Z,8.92
2023-01-27T18:11:58.885Z,8.90
2023-01-27T18:14:26.631Z,8.94
2023-01-27T18:17:05.799Z,8.89
2023-01-27T18:19:33.801Z,8.88
2023-01-27T18:22:11.183Z,8.85
2023-01-27T18:24:38.931Z,8.85
2023-01-27T18:27:20.330Z,8.86
2023-01-27T18:29:48.185Z,8.80
2023-01-27T18:32:19.425Z,8.78
2023-01-27T18:34:48.073Z,8.56
2023-01-27T18:37:32.043Z,8.75
2023-01-27T18:40:00.970Z,8.75
2023-01-27T18:42:30.219Z,8.78
2023-01-27T18:44:58.642Z,8.79
2023-01-27T18:47:33.276Z,8.58
2023-01-27T18:50:03.899Z,8.80
2023-01-27T18:52:31.845Z,8.74
2023-01-27T18:55:01.688Z,8.73
2023-01-27T18:57:30.050Z,8.71
2023-01-27T18:59:57.741Z,8.71
2023-01-27T19:02:25.672Z,8.56
2023-01-27T19:04:54.835Z,8.77
2023-01-27T19:07:22.801Z,8.72
2023-01-27T19:09:50.756Z,8.78
2023-01-27T19:12:22.942Z,8.56
2023-01-27T19:14:57.265Z,8.79
2023-01-27T19:17:25.305Z,8.80
2023-01-27T19:19:57.114Z,8.80
2023-01-27T19:22:25.517Z,8.80
2023-01-27T19:24:55.367Z,8.78
2023-01-27T19:27:23.082Z,8.80
2023-01-27T19:29:53.166Z,8.72
2023-01-27T19:32:20.944Z,8.73
2023-01-27T19:34:49.023Z,8.65
2023-01-27T19:37:19.085Z,8.56
2023-01-27T19:39:46.847Z,8.61
2023-01-27T19:42:15.322Z,8.53
2023-01-27T19:44:43.451Z,8.52
2023-01-27T19:47:12.366Z,8.52
2023-01-27T19:49:40.675Z,8.47
2023-01-27T19:52:10.070Z,8.53
2023-01-27T19:54:39.173Z,8.52
2023-01-27T19:57:10.607Z,8.47
2023-01-27T19:59:38.316Z,8.54
2023-01-27T20:02:06.225Z,8.53
2023-01-27T20:04:33.981Z,8.52
2023-01-27T20:07:02.162Z,8.43
2023-01-27T20:09:29.870Z,8.48
2023-01-27T20:11:58.936Z,8.47
2023-01-27T20:14:27.315Z,8.48
2023-01-27T20:16:55.106Z,8.39
2023-01-27T20:19:23.087Z,8.45
2023-01-27T20:21:51.052Z,8.40
2023-01-27T20:24:19.619Z,8.33
2023-01-27T20:26:48.079Z,8.35
2023-01-27T20:29:17.202Z,8.34
2023-01-27T20:31:45.155Z,8.22
2023-01-27T20:34:13.163Z,8.31
2023-01-27T20:36:41.063Z,8.22
2023-01-27T20:39:08.756Z,8.14
2023-01-27T20:41:36.479Z,8.19
2023-01-27T20:44:04.184Z,8.22
2023-01-27T20:46:33.720Z,8.29
2023-01-27T20:49:01.594Z,8.26
2023-01-27T20:51:29.289Z,8.30
2023-01-27T20:54:01.279Z,8.30
2023-01-27T20:56:29.013Z,8.31
2023-01-27T20:58:56.933Z,8.30
2023-01-27T21:01:24.751Z,8.28
2023-01-27T21:03:54.978Z,8.23
2023-01-27T21:06:22.616Z,8.26
2023-01-27T21:08:50.747Z,8.28
2023-01-27T21:11:18.897Z,8.19
2023-01-27T21:13:46.991Z,8.17
2023-01-27T21:16:36.446Z,8.13
2023-01-27T21:19:05.796Z,8.14
2023-01-27T21:21:33.680Z,8.09
2023-01-27T21:24:01.550Z,7.97
2023-01-27T21:26:29.383Z,8.09
2023-01-27T21:28:57.669Z,8.09
2023-01-27T21:31:29.915Z,8.01
2023-01-27T21:33:58.418Z,8.05
2023-01-27T21:36:27.632Z,8.07
2023-01-27T21:38:56.907Z,7.95
2023-01-27T21:41:43.004Z,7.96
2023-01-27T21:44:33.058Z,7.97
2023-01-27T21:47:00.866Z,7.89
2023-01-27T21:49:28.724Z,7.95
2023-01-27T21:51:57.794Z,7.94
2023-01-27T21:54:25.818Z,7.98
2023-01-27T21:56:55.694Z,7.94
2023-01-27T21:59:23.428Z,7.97
2023-01-27T22:01:55.151Z,7.87
2023-01-27T22:04:23.000Z,7.98
2023-01-27T22:06:53.847Z,7.98
2023-01-27T22:09:22.923Z,7.81
2023-01-27T22:11:51.002Z,7.82
2023-01-27T22:14:18.675Z,7.77
2023-01-27T22:16:46.746Z,7.82
2023-01-27T22:19:14.534Z,7.81
2023-01-27T22:21:45.093Z,7.82
2023-01-27T22:24:14.123Z,7.83
2023-01-27T22:26:43.296Z,7.83
2023-01-27T22:29:10.998Z,7.75
2023-01-27T22:31:40.371Z,7.75
2023-01-27T22:34:08.136Z,7.68
2023-01-27T22:36:36.064Z,7.64
2023-01-27T22:39:03.889Z,7.63
2023-01-27T22:41:31.748Z,7.72
2023-01-27T22:44:00.792Z,7.73
2023-01-27T22:46:28.560Z,7.77
2023-01-27T22:48:56.860Z,7.78
2023-01-27T22:51:25.313Z,7.77
2023-01-27T22:53:52.969Z,7.79
2023-01-27T22:56:20.730Z,7.82
2023-01-27T22:58:48.837Z,7.85
2023-01-27T23:01:17.965Z,7.88
2023-01-27T23:03:45.736Z,7.89
2023-01-27T23:06:13.582Z,7.92
2023-01-27T23:08:41.795Z,7.92
2023-01-27T23:11:24.916Z,7.97
2023-01-27T23:13:52.596Z,7.95
2023-01-27T23:16:23.388Z,7.97
2023-01-27T23:18:51.969Z,7.92
2023-01-27T23:23:47.397Z,7.90
2023-01-27T23:26:15.189Z,7.86
2023-01-27T23:28:45.767Z,7.82
2023-01-27T23:31:14.210Z,7.78
2023-01-27T23:33:44.494Z,7.77
2023-01-27T23:36:12.490Z,7.82
2023-01-27T23:38:42.381Z,7.84
2023-01-27T23:41:14.276Z,7.75
2023-01-27T23:43:42.594Z,7.68
2023-01-27T23:46:11.479Z,7.77
2023-01-27T23:48:39.183Z,7.55
2023-01-27T23:51:11.140Z,7.73
2023-01-27T23:53:38.966Z,7.54
2023-01-27T23:56:07.767Z,7.75
2023-01-27T23:58:35.726Z,7.74
